Time;durP1;ratioP1;P1;durP2;ratioP2;P2;SDS_P1;SDS_P2;PMS_P1;PMS_P2;Temp;Humidity;BMP_temperature;BMP_pressure;BME280_temperature;BME280_humidity;BME280_pressure;Samples;Min_cycle;Max_cycle;Signal;HPM_P1;HPM_P2
2022/06/22 02:39:48;;;;;;;4.30;3.17;;;17.00;66.50;;;;;;4751324;30;20198;-74
2022/06/22 02:45:00;;;;;;;10.43;3.85;;;17.20;66.80;;;;;;4739991;30;20068;-74
2022/06/22 02:47:45;;;;;;;14.13;4.05;;;17.30;66.90;;;;;;4739731;30;20055;-77
2022/06/22 02:50:19;;;;;;;5.57;2.90;;;17.40;66.90;;;;;;4738943;30;20044;-74
2022/06/22 02:52:49;;;;;;;10.68;3.35;;;17.40;67.00;;;;;;4755407;30;20146;-74
2022/06/22 02:55:21;;;;;;;7.78;2.90;;;17.50;67.40;;;;;;4754867;30;20071;-75
2022/06/22 02:57:52;;;;;;;5.35;2.72;;;17.50;67.30;;;;;;4754944;30;20553;-74
2022/06/22 03:00:25;;;;;;;5.80;2.80;;;17.50;67.30;;;;;;4755081;30;20071;-76
2022/06/22 03:02:56;;;;;;;5.93;2.57;;;17.60;67.40;;;;;;4753853;30;20052;-74
2022/06/22 03:05:24;;;;;;;6.72;2.30;;;17.60;67.60;;;;;;4754581;30;20475;-74
2022/06/22 03:07:56;;;;;;;8.38;2.47;;;17.70;67.80;;;;;;4755186;30;20060;-75
2022/06/22 03:10:31;;;;;;;5.95;2.38;;;17.80;67.80;;;;;;4754364;30;20506;-75
2022/06/22 03:12:59;;;;;;;4.53;2.35;;;17.80;67.80;;;;;;4754916;30;20048;-75
2022/06/22 03:15:28;;;;;;;7.90;2.50;;;17.80;67.70;;;;;;4754446;30;20060;-75
2022/06/22 03:17:56;;;;;;;7.55;2.13;;;17.90;67.70;;;;;;4754589;30;20052;-74
2022/06/22 03:20:26;;;;;;;5.47;2.20;;;17.90;67.70;;;;;;4755138;30;20048;-74
2022/06/22 03:23:05;;;;;;;4.55;2.58;;;17.90;67.60;;;;;;4754748;30;20044;-75
2022/06/22 03:25:43;;;;;;;13.05;2.80;;;18.00;67.50;;;;;;4754449;30;20052;-75
2022/06/22 03:28:15;;;;;;;8.13;2.30;;;18.00;67.60;;;;;;4754354;30;20044;-76
2022/06/22 03:31:20;;;;;;;7.65;2.67;;;18.00;67.50;;;;;;4753656;30;20044;-78
2022/06/22 03:33:53;;;;;;;7.78;2.30;;;18.10;67.40;;;;;;4726892;30;20393;-77
2022/06/22 03:36:45;;;;;;;7.20;2.03;;;18.10;67.50;;;;;;4744767;30;20055;-78
2022/06/22 03:39:14;;;;;;;5.93;2.33;;;18.10;67.50;;;;;;4734930;30;20067;-76
2022/06/22 03:41:51;;;;;;;10.35;2.88;;;18.10;68.10;;;;;;4754542;30;20071;-76
2022/06/22 03:44:25;;;;;;;7.60;2.45;;;18.20;67.60;;;;;;4754145;30;20056;-77
2022/06/22 03:46:57;;;;;;;6.13;2.42;;;18.20;67.60;;;;;;4754862;30;20476;-75
2022/06/22 03:49:44;;;;;;;6.05;1.92;;;18.20;67.70;;;;;;4745053;30;20052;-74
2022/06/22 03:52:29;;;;;;;5.28;2.28;;;18.20;67.60;;;;;;4744796;30;20056;-77
2022/06/22 03:55:05;;;;;;;7.32;2.35;;;18.30;67.60;;;;;;4760430;30;20052;-72
2022/06/22 03:57:37;;;;;;;5.38;2.05;;;18.30;67.50;;;;;;4760119;30;20071;-74
2022/06/22 04:00:07;;;;;;;4.18;1.95;;;18.30;67.40;;;;;;4760230;30;20109;-76
2022/06/22 04:02:34;;;;;;;7.20;2.30;;;18.30;67.40;;;;;;4759902;30;20055;-77
2022/06/22 04:05:01;;;;;;;11.10;1.85;;;18.30;67.30;;;;;;4759484;30;20067;-75
2022/06/22 04:07:36;;;;;;;6.05;1.73;;;18.30;67.30;;;;;;4760327;30;20060;-78
2022/06/22 04:10:04;;;;;;;7.38;2.05;;;18.40;67.40;;;;;;4760217;30;20052;-78
2022/06/22 04:12:40;;;;;;;6.40;2.17;;;18.30;67.30;;;;;;4758933;30;20509;-77
2022/06/22 04:15:30;;;;;;;7.15;2.13;;;18.40;67.30;;;;;;4759299;30;20095;-74
2022/06/22 04:18:07;;;;;;;5.75;2.40;;;18.40;67.20;;;;;;4759414;30;20052;-71
2022/06/22 04:20:50;;;;;;;4.70;1.95;;;18.40;67.10;;;;;;4759887;30;20060;-73
2022/06/22 04:23:25;;;;;;;5.20;2.13;;;18.40;67.10;;;;;;4760025;30;20056;-73
2022/06/22 04:25:54;;;;;;;7.93;2.47;;;18.40;67.10;;;;;;4759662;30;20060;-76
2022/06/22 04:28:21;;;;;;;6.00;1.90;;;18.40;67.10;;;;;;4759570;30;20135;-79
2022/06/22 04:30:50;;;;;;;4.75;2.20;;;18.40;67.10;;;;;;4758921;30;20092;-76
2022/06/22 04:33:42;;;;;;;3.53;2.00;;;18.40;67.00;;;;;;4759849;30;20051;-79
2022/06/22 04:36:22;;;;;;;6.13;2.05;;;18.40;66.20;;;;;;4759980;30;20075;-75
2022/06/22 04:39:23;;;;;;;5.93;2.65;;;18.40;65.70;;;;;;4744247;30;20068;-80
2022/06/22 04:41:49;;;;;;;3.92;1.90;;;18.30;65.60;;;;;;4731927;30;20139;-76
2022/06/22 04:44:24;;;;;;;4.03;2.30;;;18.20;65.60;;;;;;4742215;30;20096;-76
2022/06/22 04:46:53;;;;;;;4.47;1.90;;;18.10;65.80;;;;;;4742071;30;20060;-77
2022/06/22 04:49:26;;;;;;;5.45;1.80;;;18.10;65.80;;;;;;4726767;30;20056;-78
2022/06/22 04:51:59;;;;;;;4.90;1.67;;;18.10;66.00;;;;;;4741902;30;20132;-78
2022/06/22 04:54:31;;;;;;;8.25;2.13;;;18.10;66.10;;;;;;4751846;30;20119;-78
2022/06/22 04:57:02;;;;;;;4.47;1.58;;;18.10;66.30;;;;;;4758116;30;20433;-80
2022/06/22 04:59:29;;;;;;;13.30;2.03;;;18.20;66.50;;;;;;4754406;30;20059;-78
2022/06/22 05:02:03;;;;;;;11.85;2.10;;;18.20;67.40;;;;;;4756749;30;20443;-80
2022/06/22 05:04:39;;;;;;;7.65;1.80;;;18.20;67.00;;;;;;4756157;30;20126;-78
2022/06/22 05:07:42;;;;;;;10.93;1.73;;;18.20;67.20;;;;;;4756291;30;20044;-77
2022/06/22 05:10:28;;;;;;;3.40;1.35;;;18.30;67.10;;;;;;4756604;30;20058;-78
2022/06/22 05:13:03;;;;;;;4.82;1.75;;;18.30;67.10;;;;;;4756446;30;20190;-77
2022/06/22 05:15:37;;;;;;;14.88;2.63;;;18.30;67.10;;;;;;4756701;30;20059;-81
2022/06/22 05:18:11;;;;;;;15.90;2.30;;;18.40;67.30;;;;;;4756827;30;20051;-73
2022/06/22 05:20:54;;;;;;;10.23;3.72;;;18.40;67.50;;;;;;4755943;30;20055;-76
2022/06/22 05:23:23;;;;;;;11.00;5.07;;;18.50;67.40;;;;;;4756380;30;20284;-80
2022/06/22 05:25:52;;;;;;;8.63;5.28;;;18.40;66.90;;;;;;4756153;30;20049;-78
2022/06/22 05:28:46;;;;;;;7.22;4.75;;;18.40;66.90;;;;;;4755419;30;20067;-76
2022/06/22 05:31:27;;;;;;;13.38;4.40;;;18.30;67.00;;;;;;4756639;30;20056;-75
2022/06/22 05:34:00;;;;;;;7.75;3.40;;;18.30;67.30;;;;;;4741234;30;20056;-75
2022/06/22 05:36:29;;;;;;;13.10;3.97;;;18.30;67.50;;;;;;4756556;30;20079;-75
2022/06/22 05:38:57;;;;;;;13.07;2.65;;;18.30;67.70;;;;;;4756316;30;20075;-76
2022/06/22 05:41:29;;;;;;;14.73;3.50;;;18.30;67.70;;;;;;4756022;30;20059;-80
2022/06/22 05:44:03;;;;;;;17.85;3.50;;;18.40;67.70;;;;;;4755968;30;20145;-77
2022/06/22 05:46:30;;;;;;;17.30;3.45;;;18.40;67.90;;;;;;4755193;30;20063;-77
2022/06/22 05:48:56;;;;;;;15.43;3.90;;;18.50;68.10;;;;;;4756111;30;20048;-78
2022/06/22 05:51:55;;;;;;;18.67;3.40;;;18.50;68.10;;;;;;4755559;30;20105;-75
2022/06/22 05:54:33;;;;;;;20.08;3.75;;;18.50;68.10;;;;;;4755438;30;20064;-77
2022/06/22 05:57:32;;;;;;;12.18;3.08;;;18.50;68.00;;;;;;4754909;30;20048;-77
2022/06/22 06:00:28;;;;;;;21.38;4.22;;;18.60;67.90;;;;;;4755199;30;20121;-78
2022/06/22 06:03:07;;;;;;;13.43;4.05;;;18.50;68.00;;;;;;4755386;30;20052;-77
2022/06/22 06:05:42;;;;;;;15.85;3.65;;;18.50;67.90;;;;;;4755665;30;20048;-77
2022/06/22 06:08:27;;;;;;;19.77;4.53;;;18.50;68.00;;;;;;4756314;30;20132;-85
2022/06/22 06:11:00;;;;;;;11.23;5.05;;;18.60;68.20;;;;;;4739543;30;20426;-80
2022/06/22 06:13:35;;;;;;;12.15;4.35;;;18.60;68.20;;;;;;4754931;30;20536;-77
2022/06/22 06:16:02;;;;;;;10.65;4.07;;;18.60;68.10;;;;;;4755274;30;20056;-79
2022/06/22 06:18:38;;;;;;;9.18;4.07;;;18.60;68.30;;;;;;4755566;30;20074;-78
2022/06/22 06:21:10;;;;;;;10.50;3.40;;;18.60;68.30;;;;;;4755411;30;20052;-79
2022/06/22 06:24:00;;;;;;;6.03;2.78;;;18.60;68.30;;;;;;4755634;30;20060;-78
2022/06/22 06:29:52;;;;;;;7.47;3.17;;;18.70;68.50;;;;;;4755286;30;20067;-82
2022/06/22 06:32:30;;;;;;;7.10;3.05;;;18.80;68.40;;;;;;4724279;30;20079;-82
2022/06/22 06:35:21;;;;;;;9.02;3.10;;;18.80;68.50;;;;;;4739887;30;20047;-84
2022/06/22 06:37:47;;;;;;;9.35;4.47;;;18.90;68.60;;;;;;4739301;30;20071;-84
2022/06/22 06:40:19;;;;;;;8.75;3.40;;;18.90;68.70;;;;;;4739425;30;20048;-79
2022/06/22 06:43:15;;;;;;;7.70;3.35;;;19.00;68.20;;;;;;4754961;30;20052;-78
2022/06/22 06:45:41;;;;;;;12.65;3.65;;;19.00;68.30;;;;;;4754759;30;20083;-78
2022/06/22 06:48:16;;;;;;;8.00;2.80;;;19.00;68.10;;;;;;4754893;30;20055;-74
2022/06/22 06:50:48;;;;;;;7.53;2.70;;;19.00;67.80;;;;;;4754759;30;20060;-76
2022/06/22 06:53:45;;;;;;;7.18;2.97;;;19.00;68.10;;;;;;4754898;30;20044;-77
2022/06/22 06:56:11;;;;;;;6.18;2.47;;;19.10;68.20;;;;;;4755003;30;20075;-76
2022/06/22 06:58:49;;;;;;;6.05;2.22;;;19.10;68.20;;;;;;4754568;30;20387;-77
2022/06/22 07:01:20;;;;;;;5.78;2.08;;;19.10;68.20;;;;;;4736278;30;20064;-76
2022/06/22 07:03:47;;;;;;;3.92;1.90;;;19.20;68.30;;;;;;4737482;30;20067;-76
2022/06/22 07:06:13;;;;;;;6.28;2.42;;;19.20;68.30;;;;;;4736734;30;20048;-76
2022/06/22 07:08:51;;;;;;;3.65;1.85;;;19.20;68.30;;;;;;4737179;30;20063;-76
2022/06/22 07:11:35;;;;;;;7.53;1.95;;;19.20;68.40;;;;;;4736174;30;20048;-79
2022/06/22 07:14:11;;;;;;;4.72;2.13;;;19.30;68.20;;;;;;4737101;30;20060;-77
2022/06/22 07:16:38;;;;;;;4.55;1.70;;;19.30;68.20;;;;;;4737796;30;20064;-76
2022/06/22 07:19:14;;;;;;;4.25;1.55;;;19.30;68.00;;;;;;4754362;30;20056;-75
2022/06/22 07:21:51;;;;;;;4.05;1.70;;;19.30;68.10;;;;;;4754131;30;20089;-76
2022/06/22 07:24:35;;;;;;;5.20;2.10;;;19.40;68.70;;;;;;4753314;30;20064;-77
2022/06/22 07:27:09;;;;;;;3.38;1.83;;;19.40;67.90;;;;;;4754733;30;20056;-77
2022/06/22 07:29:54;;;;;;;4.97;1.70;;;19.40;67.90;;;;;;4754364;30;20449;-77
2022/06/22 07:32:32;;;;;;;4.07;1.70;;;19.40;67.80;;;;;;4755087;30;20426;-76
2022/06/22 07:35:10;;;;;;;4.57;2.15;;;19.50;67.90;;;;;;4754525;30;20078;-77
2022/06/22 07:37:41;;;;;;;4.10;1.67;;;19.50;67.90;;;;;;4738431;30;20480;-76
2022/06/22 07:40:23;;;;;;;4.28;1.70;;;19.50;67.80;;;;;;4755047;30;20071;-76
2022/06/22 07:42:51;;;;;;;3.85;1.83;;;19.50;67.60;;;;;;4754054;30;20130;-76
2022/06/22 07:45:22;;;;;;;4.93;2.10;;;19.50;67.50;;;;;;4754118;30;20465;-76
2022/06/22 07:48:04;;;;;;;5.47;2.08;;;19.50;67.50;;;;;;4754429;30;20059;-76
2022/06/22 07:50:39;;;;;;;7.13;2.78;;;19.60;67.40;;;;;;4754448;30;20060;-77
2022/06/22 07:53:29;;;;;;;6.00;2.70;;;19.60;66.00;;;;;;4754110;30;20372;-76
2022/06/22 07:56:06;;;;;;;5.05;2.38;;;19.60;65.00;;;;;;4754925;30;20059;-73
2022/06/22 07:59:01;;;;;;;7.03;3.05;;;19.50;65.50;;;;;;4738147;30;20055;-76
2022/06/22 08:01:35;;;;;;;5.57;3.20;;;19.50;64.70;;;;;;4751847;30;20079;-76
2022/06/22 08:04:07;;;;;;;4.88;2.80;;;19.50;64.10;;;;;;4753450;30;20067;-75
2022/06/22 08:06:43;;;;;;;6.68;2.63;;;19.50;64.00;;;;;;4753665;30;20060;-76
2022/06/22 08:09:26;;;;;;;5.97;3.13;;;19.50;63.60;;;;;;4752605;30;20056;-76
2022/06/22 08:12:00;;;;;;;5.18;2.65;;;19.40;63.70;;;;;;4752702;30;20056;-77
2022/06/22 08:14:38;;;;;;;8.18;3.28;;;19.40;64.60;;;;;;4753917;30;20052;-77
2022/06/22 08:17:09;;;;;;;6.18;2.60;;;19.40;65.30;;;;;;4754342;30;20056;-80
2022/06/22 08:19:36;;;;;;;7.88;2.40;;;19.50;65.70;;;;;;4754019;30;20052;-78
2022/06/22 08:22:04;;;;;;;8.40;2.65;;;19.50;66.10;;;;;;4752958;30;20464;-77
2022/06/22 08:24:33;;;;;;;7.72;2.38;;;19.60;66.10;;;;;;4753689;30;20401;-77
2022/06/22 08:27:00;;;;;;;7.80;2.22;;;19.60;66.10;;;;;;4754144;30;20109;-77
2022/06/22 08:29:30;;;;;;;7.00;2.45;;;19.70;66.10;;;;;;4753944;30;20044;-78
2022/06/22 08:32:08;;;;;;;4.95;2.40;;;19.70;66.00;;;;;;4754052;30;20540;-78
2022/06/22 08:34:42;;;;;;;6.55;1.98;;;19.80;66.10;;;;;;4755040;30;20075;-78
2022/06/22 08:37:21;;;;;;;4.88;2.15;;;19.80;66.20;;;;;;4757239;30;20373;-78
2022/06/22 08:39:53;;;;;;;9.90;2.75;;;19.90;66.20;;;;;;4757359;30;20388;-77
2022/06/22 08:42:37;;;;;;;6.32;2.60;;;19.90;66.10;;;;;;4756778;30;20052;-78
2022/06/22 08:45:27;;;;;;;7.32;2.20;;;19.90;66.70;;;;;;4757131;30;20361;-77
2022/06/22 08:48:11;;;;;;;6.60;2.53;;;20.00;66.00;;;;;;4757043;30;20048;-78
2022/06/22 08:50:37;;;;;;;7.85;2.65;;;20.00;66.00;;;;;;4757315;30;20466;-77
2022/06/22 08:53:21;;;;;;;5.78;2.42;;;20.00;66.10;;;;;;4757082;30;20132;-78
2022/06/22 08:56:01;;;;;;;5.43;2.00;;;20.00;66.00;;;;;;4757660;30;20345;-77
2022/06/22 08:59:09;;;;;;;6.80;2.45;;;20.00;66.00;;;;;;4757325;30;20428;-79
2022/06/22 09:01:54;;;;;;;6.38;2.60;;;20.10;65.70;;;;;;4755904;30;20063;-80
2022/06/22 09:04:31;;;;;;;9.15;2.95;;;20.10;65.50;;;;;;4754505;30;20063;-79
2022/06/22 09:07:22;;;;;;;5.85;2.42;;;20.10;65.10;;;;;;4755202;30;20052;-78
2022/06/22 09:10:41;;;;;;;4.63;2.33;;;20.20;65.10;;;;;;4755911;30;20180;-77
2022/06/22 09:13:25;;;;;;;5.60;2.80;;;20.20;64.90;;;;;;4719519;30;20070;-77
2022/06/22 09:15:54;;;;;;;6.32;2.67;;;20.20;65.00;;;;;;4719475;30;20064;-77
2022/06/22 09:18:22;;;;;;;8.27;2.60;;;20.20;65.00;;;;;;4735263;30;20067;-79
2022/06/22 09:21:07;;;;;;;7.20;2.40;;;20.20;65.20;;;;;;4756858;30;20139;-77
2022/06/22 09:23:57;;;;;;;7.15;2.03;;;20.20;65.00;;;;;;4756664;30;20052;-77
2022/06/22 09:26:53;;;;;;;5.25;2.25;;;20.20;64.90;;;;;;4756856;30;20437;-77
2022/06/22 09:29:42;;;;;;;4.22;1.90;;;20.30;65.00;;;;;;4756219;30;20052;-77
2022/06/22 09:32:15;;;;;;;6.20;2.55;;;20.30;65.00;;;;;;4739045;30;20063;-77
2022/06/22 09:34:46;;;;;;;6.90;2.73;;;20.30;65.10;;;;;;4756168;30;20139;-77
2022/06/22 09:37:37;;;;;;;4.60;2.45;;;20.30;64.90;;;;;;4755433;30;20056;-77
2022/06/22 09:40:21;;;;;;;7.60;2.75;;;20.30;65.20;;;;;;4720808;30;20061;-77
2022/06/22 09:43:04;;;;;;;8.23;2.45;;;20.20;64.20;;;;;;4720708;30;20111;-79
2022/06/22 09:45:36;;;;;;;9.25;2.33;;;20.20;64.20;;;;;;4719537;30;20093;-77
2022/06/22 09:48:18;;;;;;;5.10;2.90;;;20.20;64.40;;;;;;4721554;30;20398;-78
2022/06/22 09:51:14;;;;;;;5.00;2.45;;;20.20;64.40;;;;;;4720978;30;20473;-74
2022/06/22 09:53:55;;;;;;;4.75;2.22;;;20.30;64.40;;;;;;4720471;30;20057;-75
2022/06/22 09:56:56;;;;;;;3.83;2.25;;;20.30;64.40;;;;;;4720416;30;20060;-76
2022/06/22 09:59:43;;;;;;;7.03;2.45;;;20.30;64.40;;;;;;4721236;30;20084;-78
2022/06/22 10:02:17;;;;;;;5.75;3.15;;;20.30;64.40;;;;;;4720137;30;20052;-81
2022/06/22 10:04:49;;;;;;;6.82;2.85;;;20.30;63.90;;;;;;4719571;30;20385;-78
2022/06/22 10:07:30;;;;;;;5.65;2.92;;;20.40;64.20;;;;;;4719479;30;20119;-76
2022/06/22 10:10:18;;;;;;;3.70;2.63;;;20.40;64.00;;;;;;4720431;30;20049;-76
2022/06/22 10:12:57;;;;;;;6.72;2.42;;;20.40;63.90;;;;;;4719484;30;20103;-77
2022/06/22 10:15:39;;;;;;;4.15;2.83;;;20.40;64.20;;;;;;4720343;30;20052;-76
2022/06/22 10:18:35;;;;;;;4.10;2.47;;;20.40;64.20;;;;;;4720455;30;20099;-76
2022/06/22 10:21:04;;;;;;;6.22;2.45;;;20.40;64.20;;;;;;4720971;30;20095;-76
2022/06/22 10:23:38;;;;;;;6.20;2.40;;;20.40;64.30;;;;;;4720217;30;20056;-76
2022/06/22 10:26:32;;;;;;;5.38;2.75;;;20.40;64.20;;;;;;4720443;30;20049;-76
2022/06/22 10:29:16;;;;;;;3.67;2.20;;;20.40;64.20;;;;;;4719916;30;20048;-76
2022/06/22 10:32:07;;;;;;;4.18;2.25;;;20.40;64.20;;;;;;4720032;30;20053;-76
2022/06/22 10:35:29;;;;;;;6.40;2.45;;;20.40;64.20;;;;;;4720285;30;20049;-76
2022/06/22 10:38:22;;;;;;;4.20;2.47;;;20.50;64.40;;;;;;4705149;30;20057;-76
2022/06/22 10:47:44;;;;;;;3.33;1.92;;;20.50;64.50;;;;;;4737148;30;20056;-76
2022/06/22 10:50:19;;;;;;;4.80;2.20;;;20.50;64.50;;;;;;4736501;30;20591;-76
2022/06/22 10:53:17;;;;;;;4.28;1.73;;;20.50;64.60;;;;;;4736867;30;20084;-76
2022/06/22 10:56:54;;;;;;;4.28;2.63;;;20.50;64.60;;;;;;4722328;30;20061;-76
2022/06/22 10:59:28;;;;;;;4.55;2.28;;;20.50;64.60;;;;;;4678236;30;20062;-76
2022/06/22 11:02:12;;;;;;;3.67;1.90;;;20.50;64.70;;;;;;4682741;30;20061;-76
2022/06/22 11:05:06;;;;;;;4.63;1.80;;;20.50;64.70;;;;;;4716875;30;20137;-76
2022/06/22 11:07:49;;;;;;;9.35;2.40;;;20.50;64.70;;;;;;4737413;30;20096;-76
2022/06/22 11:10:41;;;;;;;7.57;2.75;;;20.50;64.70;;;;;;4736861;30;20427;-76
2022/06/22 11:13:37;;;;;;;7.90;3.03;;;20.50;64.70;;;;;;4736688;30;20049;-76
2022/06/22 11:16:27;;;;;;;4.65;2.65;;;20.50;64.50;;;;;;4737107;30;20048;-76
2022/06/22 11:18:59;;;;;;;5.72;2.55;;;20.50;64.60;;;;;;4737059;30;20056;-76
2022/06/22 11:21:48;;;;;;;6.60;2.25;;;20.50;64.70;;;;;;4736382;30;20071;-76
2022/06/22 11:24:20;;;;;;;6.63;1.95;;;20.50;64.70;;;;;;4736949;30;20057;-76
2022/06/22 11:33:25;;;;;;;4.03;2.40;;;20.50;64.80;;;;;;4736690;30;20052;-76
2022/06/22 11:36:11;;;;;;;9.38;2.88;;;20.50;64.80;;;;;;4736648;30;20152;-76
2022/06/22 11:38:58;;;;;;;8.02;2.85;;;20.50;64.90;;;;;;4745976;30;20059;-76
2022/06/22 11:41:45;;;;;;;5.38;2.20;;;20.50;64.70;;;;;;4754566;30;20160;-77
2022/06/22 11:45:50;;;;;;;4.95;2.53;;;20.50;64.70;;;;;;4754280;30;20060;-81
2022/06/22 11:48:05;;;;;;;6.38;2.97;;;20.50;65.10;;;;;;4754328;30;20056;-80
2022/06/22 11:50:45;;;;;;;9.07;3.03;;;20.60;64.80;;;;;;4738158;30;20094;-80
2022/06/22 11:53:11;;;;;;;8.80;2.95;;;20.50;65.10;;;;;;4753965;30;20048;-79
2022/06/22 11:55:53;;;;;;;8.50;3.90;;;20.60;65.00;;;;;;4753234;30;20451;-77
2022/06/22 11:58:24;;;;;;;7.35;3.13;;;20.60;64.60;;;;;;4755022;30;20056;-76
2022/06/22 12:00:53;;;;;;;7.22;2.78;;;20.60;64.70;;;;;;4754008;30;20099;-77
2022/06/22 12:03:43;;;;;;;6.70;3.25;;;20.60;64.90;;;;;;4753872;30;20052;-77
2022/06/22 12:06:30;;;;;;;6.60;2.83;;;20.60;65.00;;;;;;4753956;30;20476;-77
2022/06/22 12:09:15;;;;;;;5.00;2.45;;;20.60;65.10;;;;;;4755806;30;20472;-78
2022/06/22 12:11:41;;;;;;;6.88;2.60;;;20.60;65.20;;;;;;4757826;30;20079;-78
2022/06/22 12:17:52;;;;;;;6.43;3.03;;;20.60;65.20;;;;;;4741731;30;20064;-79
2022/06/22 12:20:56;;;;;;;6.82;2.42;;;20.60;65.40;;;;;;4722916;30;20088;-81
2022/06/22 12:23:43;;;;;;;6.70;2.85;;;20.60;65.50;;;;;;4737630;30;20437;-78
2022/06/22 12:26:34;;;;;;;6.40;2.85;;;20.60;65.60;;;;;;4723039;30;20473;-80
2022/06/22 12:29:17;;;;;;;4.82;2.33;;;20.60;65.60;;;;;;4737372;30;20502;-81
2022/06/22 12:31:55;;;;;;;5.85;3.10;;;20.60;65.70;;;;;;4726983;30;20052;-80
2022/06/22 12:34:25;;;;;;;5.90;2.90;;;20.60;65.70;;;;;;4757162;30;20406;-78
2022/06/22 12:36:57;;;;;;;8.80;2.80;;;20.60;65.60;;;;;;4757238;30;20036;-79
2022/06/22 12:39:58;;;;;;;10.65;3.10;;;20.60;65.80;;;;;;4757140;30;20056;-81
2022/06/22 12:42:40;;;;;;;10.32;3.30;;;20.70;65.90;;;;;;4718775;30;20488;-77
2022/06/22 12:45:12;;;;;;;9.70;3.30;;;20.70;65.00;;;;;;4757101;30;20052;-80
2022/06/22 12:47:52;;;;;;;8.85;3.40;;;20.80;65.20;;;;;;4741673;30;20102;-80
2022/06/22 12:50:40;;;;;;;7.20;3.25;;;20.80;65.30;;;;;;4727147;30;20431;-80
2022/06/22 12:53:21;;;;;;;9.63;3.67;;;20.80;65.60;;;;;;4741671;30;20060;-79
2022/06/22 12:55:53;;;;;;;8.68;3.47;;;20.80;65.80;;;;;;4756877;30;20163;-80
2022/06/22 12:58:36;;;;;;;8.60;3.50;;;20.80;65.80;;;;;;4741529;30;20048;-82
2022/06/22 13:01:04;;;;;;;9.50;4.10;;;20.80;65.50;;;;;;4755919;30;20390;-80
2022/06/22 13:03:52;;;;;;;8.05;4.05;;;20.80;65.60;;;;;;4756660;30;20044;-83
2022/06/22 13:06:19;;;;;;;11.20;4.68;;;20.80;65.60;;;;;;4727108;30;20419;-81
2022/06/22 13:08:45;;;;;;;8.80;4.10;;;20.90;65.60;;;;;;4756006;30;20074;-81
2022/06/22 13:11:19;;;;;;;7.55;4.18;;;20.90;65.40;;;;;;4755888;30;20055;-81
2022/06/22 13:14:01;;;;;;;7.85;4.10;;;20.90;65.60;;;;;;4741314;30;20342;-82
2022/06/22 13:16:37;;;;;;;7.95;4.45;;;21.00;65.40;;;;;;4756358;30;20056;-81
2022/06/22 13:19:27;;;;;;;9.40;4.95;;;20.90;65.30;;;;;;4741067;30;20412;-81
2022/06/22 13:22:15;;;;;;;8.90;4.38;;;21.00;65.30;;;;;;4740347;30;20052;-81
2022/06/22 13:24:58;;;;;;;7.47;5.03;;;20.90;65.20;;;;;;4740502;30;20055;-81
2022/06/22 13:27:33;;;;;;;8.73;4.50;;;21.00;65.20;;;;;;4740244;30;20065;-81
2022/06/22 13:30:02;;;;;;;12.07;4.57;;;21.00;65.10;;;;;;4740609;30;20055;-80
2022/06/22 13:32:32;;;;;;;11.25;4.93;;;21.00;65.80;;;;;;4756379;30;20113;-81
2022/06/22 13:35:15;;;;;;;9.73;4.97;;;21.00;65.20;;;;;;4740775;30;20044;-84
2022/06/22 13:37:53;;;;;;;10.52;5.13;;;21.00;65.30;;;;;;4740484;30;20071;-83
2022/06/22 13:40:37;;;;;;;9.18;4.97;;;21.00;65.20;;;;;;4725915;30;20056;-84
2022/06/22 13:43:12;;;;;;;;;;;21.00;65.30;;;;;;4726359;30;20044;-85
2022/06/22 13:45:48;;;;;;;10.85;3.90;;;21.00;65.20;;;;;;4740568;30;19934;-84
2022/06/22 13:48:23;;;;;;;8.82;4.70;;;21.00;65.50;;;;;;4725806;30;20044;-85
2022/06/22 13:51:22;;;;;;;5.85;3.80;;;20.90;65.60;;;;;;4725787;30;20472;-83
2022/06/22 13:54:32;;;;;;;8.32;4.00;;;20.90;65.60;;;;;;4740393;30;20059;-84
2022/06/22 13:57:24;;;;;;;7.40;3.60;;;21.00;65.50;;;;;;4725492;30;20443;-83
2022/06/22 13:59:58;;;;;;;7.82;4.03;;;21.00;65.60;;;;;;4740130;30;20051;-79
2022/06/22 14:03:03;;;;;;;11.45;3.95;;;21.00;65.40;;;;;;4739653;30;20051;-83
2022/06/22 14:05:44;;;;;;;7.60;3.80;;;21.00;65.40;;;;;;4725360;30;20458;-81
2022/06/22 14:08:42;;;;;;;7.85;3.88;;;21.00;65.20;;;;;;4754870;30;20044;-83
2022/06/22 14:11:22;;;;;;;12.20;4.20;;;21.00;65.40;;;;;;4725561;30;20048;-81
2022/06/22 14:13:56;;;;;;;10.65;4.78;;;21.00;65.30;;;;;;4755876;30;20060;-80
2022/06/22 14:16:44;;;;;;;11.00;3.58;;;21.00;65.40;;;;;;4755904;30;20048;-77
2022/06/22 14:19:31;;;;;;;10.80;4.05;;;21.00;65.60;;;;;;4755201;30;20052;-80
2022/06/22 14:22:05;;;;;;;7.18;3.85;;;21.10;65.50;;;;;;4754945;30;20590;-81
2022/06/22 14:24:33;;;;;;;;;;;21.10;65.30;;;;;;4754970;30;20067;-80
2022/06/22 14:27:01;;;;;;;10.25;3.80;;;21.00;65.00;;;;;;4755633;30;20243;-79
2022/06/22 14:30:00;;;;;;;8.18;3.53;;;21.10;65.30;;;;;;4740601;30;20059;-79
2022/06/22 14:32:35;;;;;;;15.80;3.58;;;21.00;65.10;;;;;;4739847;30;20083;-79
2022/06/22 18:56:37;;;;;;;2.75;1.27;;;21.00;65.90;;;;;;5032104;24;20108;-79
2022/06/22 18:59:24;;;;;;;3.42;1.50;;;20.90;65.90;;;;;;4773135;30;20078;-75
2022/06/22 19:01:50;;;;;;;2.97;1.08;;;20.90;65.80;;;;;;4772542;30;20471;-77
2022/06/22 19:04:20;;;;;;;3.67;1.15;;;20.90;65.90;;;;;;4771256;30;20490;-78
2022/06/22 19:07:04;;;;;;;3.53;1.33;;;20.90;65.90;;;;;;4757044;30;20079;-79
2022/06/22 19:09:44;;;;;;;2.38;1.00;;;20.90;65.80;;;;;;4757367;30;20333;-78
2022/06/22 19:12:41;;;;;;;4.53;1.15;;;20.90;65.90;;;;;;4772610;30;20062;-78
2022/06/22 19:15:32;;;;;;;2.40;0.95;;;20.90;66.00;;;;;;4772365;30;20055;-79
2022/06/22 19:18:04;;;;;;;3.03;0.90;;;20.80;66.00;;;;;;4771754;30;20058;-78
2022/06/22 19:20:51;;;;;;;1.85;0.80;;;20.80;66.10;;;;;;4772511;30;20075;-76
2022/06/22 19:23:51;;;;;;;2.40;0.90;;;20.80;66.00;;;;;;4770853;30;20124;-85
2022/06/22 19:26:29;;;;;;;1.90;1.10;;;20.70;66.10;;;;;;4756570;30;20060;-75
2022/06/22 19:29:51;;;;;;;1.92;0.88;;;20.70;66.10;;;;;;4739041;30;20056;-76
2022/06/22 19:32:58;;;;;;;2.83;1.42;;;20.70;66.80;;;;;;4763377;30;20059;-79
2022/06/22 19:35:32;;;;;;;2.95;1.50;;;20.60;66.30;;;;;;4772666;30;20051;-80
2022/06/22 19:38:26;;;;;;;3.50;1.73;;;20.60;66.30;;;;;;4771927;30;20166;-81
2022/06/22 19:41:00;;;;;;;3.58;1.77;;;20.50;66.00;;;;;;4771677;30;20313;-76
2022/06/22 19:43:49;;;;;;;1.92;1.50;;;20.60;66.10;;;;;;4772278;30;20060;-76
2022/06/22 19:46:39;;;;;;;1.77;1.40;;;20.50;66.80;;;;;;4772254;30;20078;-74
2022/06/22 19:49:20;;;;;;;2.30;1.58;;;20.40;66.20;;;;;;4771917;30;20048;-74
2022/06/22 19:51:51;;;;;;;2.40;1.42;;;20.40;66.30;;;;;;4772392;30;20110;-77
2022/06/22 19:54:30;;;;;;;3.47;1.58;;;20.30;66.40;;;;;;4772087;30;20117;-75
2022/06/22 19:56:59;;;;;;;3.17;1.60;;;20.30;66.30;;;;;;4771879;30;20541;-75
2022/06/22 19:59:36;;;;;;;2.72;1.20;;;20.30;66.50;;;;;;4771913;30;20427;-75
2022/06/22 20:02:32;;;;;;;2.97;1.70;;;20.20;66.40;;;;;;4771162;30;20090;-75
2022/06/22 20:05:05;;;;;;;3.03;1.40;;;20.30;66.30;;;;;;4763946;30;20384;-78
2022/06/22 20:07:30;;;;;;;3.60;1.40;;;20.20;66.40;;;;;;4755795;30;20055;-78
2022/06/22 20:10:33;;;;;;;2.15;1.23;;;20.20;66.30;;;;;;4770554;30;20121;-78
2022/06/22 20:13:23;;;;;;;3.22;1.20;;;20.20;66.40;;;;;;4763089;30;20144;-73
2022/06/22 20:15:58;;;;;;;3.97;1.40;;;20.20;66.50;;;;;;4745619;30;20172;-75
2022/06/22 20:18:24;;;;;;;3.08;1.35;;;20.10;66.40;;;;;;4754799;30;20360;-78
2022/06/22 20:21:14;;;;;;;3.80;1.40;;;20.10;66.50;;;;;;4744109;30;20048;-77
2022/06/22 20:24:15;;;;;;;2.17;1.42;;;20.10;66.50;;;;;;4754047;30;20088;-73
2022/06/22 20:27:15;;;;;;;2.28;1.67;;;20.00;66.40;;;;;;4746359;30;20074;-77
2022/06/22 20:29:57;;;;;;;3.28;1.20;;;19.90;66.60;;;;;;4753794;30;20088;-76
2022/06/22 20:33:00;;;;;;;2.95;1.30;;;19.90;66.60;;;;;;4772830;30;20056;-76
2022/06/22 20:35:36;;;;;;;4.20;1.52;;;19.90;66.50;;;;;;4772389;30;20052;-78
2022/06/22 20:38:05;;;;;;;3.38;1.27;;;19.90;66.40;;;;;;4770527;30;20055;-78
2022/06/22 20:43:59;;;;;;;3.25;1.65;;;19.80;66.10;;;;;;4770682;30;20051;-76
2022/06/22 20:46:38;;;;;;;2.42;1.52;;;19.80;66.20;;;;;;4758424;30;20063;-77
2022/06/22 20:49:15;;;;;;;3.00;1.50;;;19.70;66.20;;;;;;4741481;30;20060;-77
2022/06/22 20:51:46;;;;;;;2.63;1.50;;;19.70;66.10;;;;;;4757057;30;20040;-78
2022/06/22 20:54:19;;;;;;;2.53;1.60;;;19.60;66.00;;;;;;4757027;30;20052;-80
2022/06/22 20:56:53;;;;;;;2.17;1.50;;;19.60;66.00;;;;;;4773245;30;20495;-77
2022/06/22 20:59:35;;;;;;;2.67;1.40;;;19.60;66.10;;;;;;4773422;30;20071;-78
2022/06/22 21:02:07;;;;;;;2.67;1.30;;;19.50;66.10;;;;;;4774693;30;20059;-79
2022/06/22 21:04:47;;;;;;;2.15;1.40;;;19.50;66.30;;;;;;4774614;30;20052;-78
2022/06/22 21:07:24;;;;;;;2.92;1.45;;;19.50;66.40;;;;;;4774687;30;20067;-78
2022/06/22 21:10:02;;;;;;;2.33;1.30;;;19.40;66.50;;;;;;4774670;30;20099;-78
